aviador You're here:

KELN Decoded Metar

ELLENSBURG in WA, USA
Report Time2018-04-23 22:53:00
UTC Time2018-04-23 23:10:09
Flight Rules vfr VFR
Wind100° at 13 Gusting to 22 kt
W.Decomp.*RWY 07: 12.6 kt HW 3.1 kt RCW
RWY 11: 11.7 kt HW 5.7 kt LCW
W.Rank100° ranks 9
Current wind is above 100° avg. (5.1)
Visibility9999 m
Phenomena:N/A
Clouds:N/A
Expected CloudBase > 9,600 ft AGL from Temp-Dew spread
CeilingNone
Temp20°C (ISA +8)
Dew Point-4°C (20% RH)
AAT12.9°C
QNH1027 hPa
Density Alt2,280 ft
Elevation1,703 ft
Report Wrong Elevation
Raw Report
KELN 232253Z AUTO 10013G22KT 10SM CLR 20/M04 A3032 RMK AO2 SLP270
T02001039=

Extra information for KELN:More info

Metar Taf Metar & Taf Last 4 Metars F.Rules Stats Wind Profile Meteogram Temp Stats Airport Information Weather charts Add Link Nearby VenuesMetar ALERT Operation Metar Decoded Social comments

AIRNAV info for KELN